Time;durP1;ratioP1;P1;durP2;ratioP2;P2;SDS_P1;SDS_P2;PMS_P1;PMS_P2;Temp;Humidity;BMP_temperature;BMP_pressure;BME280_temperature;BME280_humidity;BME280_pressure;Samples;Min_cycle;Max_cycle;Signal;HPM_P1;HPM_P2
2023/08/22 00:02:26;;;;;;;9.40;8.00;;;;;;;19.92;100.00;100133.46;105937;1256;74011;-64
2023/08/22 00:04:53;;;;;;;9.60;7.90;;;;;;;19.87;100.00;100135.68;105736;1256;68108;-62
2023/08/22 00:07:22;;;;;;;7.80;6.90;;;;;;;19.79;100.00;100135.59;105863;1256;71429;-62
2023/08/22 00:09:49;;;;;;;7.80;7.00;;;;;;;19.75;100.00;100135.07;105960;1253;60507;-65
2023/08/22 00:12:16;;;;;;;7.80;7.00;;;;;;;19.73;100.00;100138.73;105458;1256;60127;-63
2023/08/22 00:14:43;;;;;;;8.90;7.30;;;;;;;19.70;100.00;100136.33;105804;1254;73594;-64
2023/08/22 00:17:10;;;;;;;7.90;7.10;;;;;;;19.71;100.00;100137.88;105677;1256;67168;-63
2023/08/22 00:19:39;;;;;;;8.60;7.20;;;;;;;19.74;100.00;100138.13;105927;1253;72737;-63
2023/08/22 00:22:06;;;;;;;10.10;7.80;;;;;;;19.75;100.00;100137.61;105867;1256;60608;-64
2023/08/22 00:24:33;;;;;;;8.60;7.40;;;;;;;19.75;100.00;100134.06;105572;1253;60429;-63
2023/08/22 00:27:00;;;;;;;7.30;6.60;;;;;;;19.74;100.00;100135.86;105736;1253;73892;-64
2023/08/22 00:29:27;;;;;;;9.20;7.50;;;;;;;19.68;100.00;100136.41;105732;1256;66571;-64
2023/08/22 00:31:54;;;;;;;10.60;7.90;;;;;;;19.65;100.00;100136.52;105678;1253;72543;-67
2023/08/22 00:34:22;;;;;;;9.40;8.40;;;;;;;19.62;100.00;100139.77;105509;1253;62308;-64
2023/08/22 00:36:48;;;;;;;9.20;8.10;;;;;;;19.58;100.00;100138.95;105861;1253;60446;-67
2023/08/22 00:39:15;;;;;;;9.40;8.20;;;;;;;19.53;100.00;100138.63;105767;1253;72670;-64
2023/08/22 00:41:43;;;;;;;9.60;8.30;;;;;;;19.45;100.00;100143.64;106043;1256;67100;-66
2023/08/22 00:44:09;;;;;;;10.80;8.90;;;;;;;19.39;100.00;100141.77;105524;1253;72422;-63
2023/08/22 00:46:38;;;;;;;8.20;7.40;;;;;;;19.32;100.00;100135.96;105692;1253;62072;-63
2023/08/22 00:49:08;;;;;;;9.90;8.10;;;;;;;19.26;100.00;100138.36;105892;1253;60393;-64
2023/08/22 00:51:39;;;;;;;9.20;8.10;;;;;;;19.22;100.00;100143.64;105717;1256;73864;-64
2023/08/22 00:54:06;;;;;;;;;;;;;;;19.17;100.00;100142.58;105544;1253;67297;-63
2023/08/22 00:56:34;;;;;;;8.30;7.30;;;;;;;19.12;100.00;100141.23;105843;1253;72641;-64
2023/08/22 00:59:02;;;;;;;9.50;7.90;;;;;;;19.08;100.00;100141.33;105717;1257;60621;-66
2023/08/22 01:01:30;;;;;;;9.80;8.80;;;;;;;19.05;100.00;100141.66;105784;1256;60425;-66
2023/08/22 01:03:57;;;;;;;9.40;8.40;;;;;;;18.96;100.00;100140.30;105816;1253;73983;-64
2023/08/22 01:07:03;;;;;;;9.00;7.90;;;;;;;18.95;100.00;100139.02;105844;1257;66366;-64
2023/08/22 01:09:37;;;;;;;8.20;7.40;;;;;;;18.88;100.00;100142.55;105628;1256;71133;-64
2023/08/22 01:12:10;;;;;;;7.80;7.00;;;;;;;18.84;100.00;100145.04;105705;1256;62021;-65
2023/08/22 01:14:41;;;;;;;9.50;8.40;;;;;;;18.78;100.00;100144.98;105792;1257;60290;-66
2023/08/22 01:17:08;;;;;;;9.10;7.90;;;;;;;18.76;100.00;100145.95;105762;1253;72816;-65
2023/08/22 01:19:35;;;;;;;8.50;7.60;;;;;;;18.79;100.00;100146.64;105759;1253;67334;-65
2023/08/22 01:22:02;;;;;;;13.50;7.30;;;;;;;18.78;100.00;100145.98;105676;1256;72724;-65
2023/08/22 01:24:29;;;;;;;8.90;7.90;;;;;;;18.76;100.00;100146.69;106299;1256;60656;-64
2023/08/22 01:26:56;;;;;;;9.10;7.70;;;;;;;18.71;100.00;100153.44;105632;1259;60421;-65
2023/08/22 01:29:34;;;;;;;9.00;8.00;;;;;;;18.72;100.00;100154.40;105836;1253;72795;-65
2023/08/22 01:32:09;;;;;;;9.00;7.90;;;;;;;18.79;100.00;100159.20;105686;1256;66770;-65
2023/08/22 01:34:37;;;;;;;10.90;7.60;;;;;;;18.77;100.00;100162.08;105891;1258;71533;-66
2023/08/22 01:37:04;;;;;;;9.20;7.50;;;;;;;18.80;100.00;100160.96;105595;1257;61078;-66
2023/08/22 01:39:31;;;;;;;10.30;7.80;;;;;;;18.84;100.00;100161.63;105650;1253;60473;-66
2023/08/22 01:41:58;;;;;;;8.50;7.70;;;;;;;18.85;100.00;100168.02;105754;1257;72752;-65
2023/08/22 01:44:28;;;;;;;9.30;8.20;;;;;;;18.86;100.00;100170.41;105731;1253;67114;-67
2023/08/22 01:46:55;;;;;;;8.80;7.90;;;;;;;18.87;100.00;100173.18;105697;1254;73397;-63
2023/08/22 01:49:22;;;;;;;8.90;7.90;;;;;;;18.88;100.00;100176.05;105765;1254;60376;-62
2023/08/22 01:51:49;;;;;;;10.50;8.40;;;;;;;18.87;100.00;100173.35;105917;1256;60371;-63
2023/08/22 01:54:16;;;;;;;9.90;8.90;;;;;;;18.86;100.00;100166.34;105827;1254;73749;-63
2023/08/22 01:56:45;;;;;;;10.60;9.30;;;;;;;18.86;100.00;100169.27;105773;1254;67872;-63
2023/08/22 01:59:12;;;;;;;9.00;8.10;;;;;;;18.86;100.00;100167.52;105644;1257;72656;-63
2023/08/22 02:01:39;;;;;;;12.20;9.20;;;;;;;18.85;100.00;100167.02;105707;1256;60543;-64
2023/08/22 02:04:06;;;;;;;9.20;8.30;;;;;;;18.83;100.00;100167.84;105758;1254;60359;-64
2023/08/22 02:06:33;;;;;;;9.60;8.70;;;;;;;18.83;100.00;100172.80;106076;1256;72780;-67
2023/08/22 02:09:00;;;;;;;9.00;8.10;;;;;;;18.84;100.00;100172.23;105697;1253;65544;-65
2023/08/22 02:11:27;;;;;;;9.90;8.30;;;;;;;18.84;100.00;100175.62;105935;1253;72658;-64
2023/08/22 02:13:57;;;;;;;11.50;8.70;;;;;;;18.85;100.00;100176.16;105641;1259;60676;-63
2023/08/22 02:16:24;;;;;;;9.60;8.10;;;;;;;18.84;100.00;100178.63;106063;1256;60534;-67
2023/08/22 02:18:51;;;;;;;10.10;8.40;;;;;;;18.84;100.00;100175.67;105911;1253;72599;-67
2023/08/22 02:21:18;;;;;;;10.00;8.90;;;;;;;18.84;100.00;100176.04;105665;1257;66652;-64
2023/08/22 02:23:45;;;;;;;9.40;8.50;;;;;;;18.84;100.00;100176.55;105675;1254;71210;-64
2023/08/22 02:26:12;;;;;;;9.40;7.90;;;;;;;18.85;100.00;100170.35;105980;1253;62202;-66
2023/08/22 02:28:39;;;;;;;10.20;8.90;;;;;;;18.88;100.00;100174.36;105714;1256;60439;-64
2023/08/22 02:31:06;;;;;;;9.30;8.20;;;;;;;18.89;100.00;100168.14;105865;1253;72725;-65
2023/08/22 02:33:34;;;;;;;9.60;8.50;;;;;;;18.90;100.00;100167.13;105768;1256;65936;-63
2023/08/22 02:36:01;;;;;;;9.40;8.30;;;;;;;18.90;100.00;100171.44;105989;1256;70584;-64
2023/08/22 02:38:28;;;;;;;10.10;9.10;;;;;;;18.91;100.00;100169.11;105598;1253;61503;-63
2023/08/22 02:40:55;;;;;;;10.70;8.90;;;;;;;18.89;100.00;100174.16;105800;1256;60459;-63
2023/08/22 02:43:22;;;;;;;10.50;9.00;;;;;;;18.89;100.00;100172.52;105617;1256;73866;-63
2023/08/22 02:45:49;;;;;;;10.30;8.60;;;;;;;18.91;100.00;100171.25;105694;1254;67018;-63
2023/08/22 02:48:17;;;;;;;9.10;8.20;;;;;;;18.98;100.00;100176.11;105912;1257;71407;-66
2023/08/22 02:50:44;;;;;;;9.30;8.40;;;;;;;19.01;100.00;100175.89;105529;1257;60785;-63
2023/08/22 02:53:14;;;;;;;9.90;8.70;;;;;;;19.02;100.00;100174.33;105892;1256;60414;-65
2023/08/22 02:55:42;;;;;;;13.40;9.60;;;;;;;19.03;100.00;100174.48;105822;1257;73591;-64
2023/08/22 02:58:09;;;;;;;9.80;8.40;;;;;;;19.04;100.00;100176.98;105654;1253;65787;-64
2023/08/22 03:00:35;;;;;;;9.90;8.60;;;;;;;19.12;100.00;100175.16;105339;1254;73294;-63
2023/08/22 03:03:03;;;;;;;12.10;8.80;;;;;;;19.19;100.00;100172.69;106041;1256;62085;-63
2023/08/22 03:05:31;;;;;;;9.70;8.70;;;;;;;19.26;100.00;100168.80;105692;1257;60343;-64
2023/08/22 03:07:58;;;;;;;13.30;9.60;;;;;;;19.32;100.00;100172.23;105671;1256;72604;-63
2023/08/22 03:10:25;;;;;;;11.10;9.30;;;;;;;19.39;100.00;100172.48;105320;1259;67389;-64
2023/08/22 03:12:54;;;;;;;10.30;9.10;;;;;;;19.45;100.00;100175.48;105666;1253;72662;-62
2023/08/22 03:15:22;;;;;;;10.40;9.30;;;;;;;19.53;100.00;100174.63;105827;1257;61940;-66
2023/08/22 03:17:49;;;;;;;10.50;9.20;;;;;;;19.61;100.00;100173.70;105680;1256;60438;-63
2023/08/22 03:20:16;;;;;;;10.00;9.00;;;;;;;19.70;100.00;100173.15;105693;1253;72548;-64
2023/08/22 03:22:43;;;;;;;10.70;9.60;;;;;;;19.78;100.00;100174.52;105773;1258;67184;-61
2023/08/22 03:25:10;;;;;;;12.00;9.90;;;;;;;19.84;100.00;100171.09;105756;1259;72587;-61
2023/08/22 03:27:38;;;;;;;10.70;9.60;;;;;;;19.94;100.00;100174.96;105641;1258;60790;-64
2023/08/22 03:30:07;;;;;;;10.70;9.60;;;;;;;20.07;100.00;100180.95;105912;1259;60351;-64
2023/08/22 03:32:34;;;;;;;9.50;8.50;;;;;;;20.23;100.00;100183.50;105623;1254;71737;-62
2023/08/22 03:35:03;;;;;;;11.50;9.00;;;;;;;20.46;100.00;100181.05;105804;1254;67310;-65
2023/08/22 03:37:30;;;;;;;10.00;9.00;;;;;;;20.95;100.00;100180.70;105984;1257;71307;-67
2023/08/22 03:39:58;;;;;;;9.60;8.70;;;;;;;21.79;100.00;100180.34;105409;1259;60574;-64
2023/08/22 03:42:26;;;;;;;11.30;9.60;;;;;;;22.85;100.00;100175.06;105760;1254;60399;-66
2023/08/22 03:44:54;;;;;;;11.60;8.70;;;;;;;24.00;100.00;100169.27;105602;1256;74068;-64
2023/08/22 03:47:21;;;;;;;10.90;7.80;;;;;;;25.15;100.00;100156.04;105728;1256;65962;-64
2023/08/22 03:49:48;;;;;;;108.20;96.90;;;;;;;26.24;100.00;100146.14;105931;1257;71490;-67
2023/08/22 03:52:15;;;;;;;20.10;18.00;;;;;;;27.26;100.00;100120.07;105521;1256;61500;-65
2023/08/22 03:54:42;;;;;;;20.90;18.80;;;;;;;28.15;100.00;100091.37;105522;1256;60496;-64
2023/08/22 03:57:09;;;;;;;17.10;15.30;;;;;;;28.97;100.00;100074.19;105739;1257;72603;-64
2023/08/22 03:59:36;;;;;;;23.90;21.30;;;;;;;29.77;100.00;100058.80;105899;1257;67141;-64
2023/08/22 04:02:03;;;;;;;73.70;66.00;;;;;;;30.50;100.00;100048.92;106078;1253;71453;-69
2023/08/22 04:04:30;;;;;;;35.20;31.60;;;;;;;31.22;100.00;100047.94;105770;1254;60737;-65
2023/08/22 04:06:57;;;;;;;29.70;26.10;;;;;;;31.81;100.00;100049.77;105805;1254;60194;-64
2023/08/22 04:09:24;;;;;;;23.20;20.80;;;;;;;32.28;100.00;100055.15;105842;1253;73860;-63
2023/08/22 04:11:52;;;;;;;21.40;19.10;;;;;;;32.72;100.00;100049.49;105586;1257;67113;-64
2023/08/22 04:14:19;;;;;;;12.00;10.90;;;;;;;33.17;100.00;100048.70;105992;1257;71597;-67
2023/08/22 04:16:47;;;;;;;9.00;8.20;;;;;;;33.60;100.00;100048.80;105611;1257;60453;-66
2023/08/22 04:19:14;;;;;;;8.50;7.60;;;;;;;33.91;100.00;100047.98;105896;1257;60445;-63
2023/08/22 04:21:42;;;;;;;8.50;7.70;;;;;;;34.30;100.00;100048.88;105826;1253;73702;-65
2023/08/22 04:24:09;;;;;;;8.70;7.80;;;;;;;34.70;100.00;100054.21;105779;1257;66853;-66
2023/08/22 04:26:37;;;;;;;9.00;7.30;;;;;;;35.05;96.92;100050.33;105511;1257;64611;-65
2023/08/22 04:29:05;;;;;;;9.10;7.60;;;;;;;35.41;92.34;100049.80;105555;1253;60332;-63
2023/08/22 04:31:32;;;;;;;7.80;7.10;;;;;;;35.77;86.65;100052.78;105797;1255;60379;-64
2023/08/22 04:33:59;;;;;;;7.20;6.60;;;;;;;36.13;80.02;100052.15;105638;1256;65341;-68
2023/08/22 04:36:26;;;;;;;8.30;7.60;;;;;;;36.40;73.05;100050.61;105929;1254;60343;-68
2023/08/22 04:38:53;;;;;;;8.40;7.60;;;;;;;36.60;69.33;100048.80;105762;1254;63751;-65
2023/08/22 04:41:22;;;;;;;10.40;9.30;;;;;;;36.78;64.80;100049.08;105776;1266;60438;-65
2023/08/22 04:44:16;;;;;;;11.40;9.70;;;;;;;36.98;61.89;100045.66;105744;1254;60406;-66
2023/08/22 04:46:43;;;;;;;9.40;8.50;;;;;;;37.19;58.77;100048.36;105800;1256;65534;-63
2023/08/22 04:49:10;;;;;;;11.40;10.30;;;;;;;37.39;55.20;100049.88;105857;1257;60423;-65
2023/08/22 04:51:38;;;;;;;9.90;9.10;;;;;;;37.39;52.80;100048.24;105780;1258;62896;-64
2023/08/22 04:54:05;;;;;;;11.40;10.20;;;;;;;37.44;53.97;100050.88;106071;1257;59623;-67
2023/08/22 04:56:32;;;;;;;10.70;9.80;;;;;;;37.73;52.38;100056.81;105509;1267;59582;-66
2023/08/22 04:58:59;;;;;;;9.50;8.70;;;;;;;38.01;50.99;100059.54;105906;1256;65317;-62
2023/08/22 05:01:27;;;;;;;10.30;9.30;;;;;;;38.34;49.26;100061.50;105822;1254;60513;-64
2023/08/22 05:03:56;;;;;;;9.70;9.00;;;;;;;38.77;48.12;100054.79;105921;1257;62954;-65
2023/08/22 05:06:23;;;;;;;10.00;9.10;;;;;;;39.23;46.13;100054.45;105743;1254;60437;-66
2023/08/22 05:08:50;;;;;;;12.70;9.40;;;;;;;39.55;43.84;100052.95;105733;1257;60339;-64
2023/08/22 05:11:17;;;;;;;10.40;9.40;;;;;;;39.79;42.62;100051.80;105844;1256;64052;-63
2023/08/22 05:13:45;;;;;;;12.00;11.10;;;;;;;39.91;41.28;100053.23;105735;1265;60520;-63
2023/08/22 05:16:12;;;;;;;12.80;11.80;;;;;;;39.90;40.10;100050.82;106018;1257;62854;-66
2023/08/22 05:18:40;;;;;;;12.00;10.90;;;;;;;39.79;40.19;100047.92;105886;1256;60457;-63
2023/08/22 05:21:07;;;;;;;9.50;8.70;;;;;;;39.69;40.77;100048.89;105955;1257;60444;-64
2023/08/22 05:23:35;;;;;;;8.90;8.10;;;;;;;39.74;41.16;100046.65;106035;1256;64301;-63
2023/08/22 05:26:03;;;;;;;10.40;9.50;;;;;;;39.93;40.37;100041.94;105843;1256;60568;-63
2023/08/22 05:28:30;;;;;;;15.60;14.30;;;;;;;40.12;39.87;100038.23;105919;1255;62758;-65
2023/08/22 05:30:57;;;;;;;9.60;8.60;;;;;;;40.34;39.40;100040.67;105826;1256;60393;-65
2023/08/22 05:33:25;;;;;;;9.60;8.70;;;;;;;40.48;38.78;100043.23;105568;1259;60332;-64
2023/08/22 05:35:52;;;;;;;8.20;7.50;;;;;;;40.49;38.63;100037.31;105689;1257;65245;-62
2023/08/22 05:38:19;;;;;;;7.60;7.00;;;;;;;40.53;38.81;100037.46;105969;1254;59365;-67
2023/08/22 05:40:46;;;;;;;8.10;7.40;;;;;;;40.49;37.58;100039.27;105694;1257;63421;-66
2023/08/22 05:43:13;;;;;;;11.80;10.50;;;;;;;40.36;38.06;100036.30;105848;1257;60429;-65
2023/08/22 05:45:42;;;;;;;9.30;8.50;;;;;;;40.33;38.44;100030.14;105736;1257;60879;-64
2023/08/22 05:48:09;;;;;;;7.20;6.60;;;;;;;40.26;38.35;100028.75;105782;1256;63695;-65
2023/08/22 05:50:36;;;;;;;6.80;6.30;;;;;;;40.15;38.60;100035.14;105566;1256;60432;-65
2023/08/22 05:53:03;;;;;;;6.70;6.10;;;;;;;40.11;38.35;100036.35;105615;1259;64592;-65
2023/08/22 05:55:31;;;;;;;6.60;6.10;;;;;;;40.20;37.87;100040.83;105685;1254;60533;-65
2023/08/22 05:58:02;;;;;;;6.30;5.80;;;;;;;40.14;37.92;100037.52;105680;1256;60415;-64
2023/08/22 06:00:29;;;;;;;6.50;5.90;;;;;;;40.17;37.73;100037.16;105644;1254;63994;-62
2023/08/22 06:02:57;;;;;;;6.70;6.20;;;;;;;40.24;37.64;100039.34;105824;1256;60392;-63
2023/08/22 06:05:26;;;;;;;7.10;6.50;;;;;;;40.33;37.37;100043.32;105674;1254;64680;-63
2023/08/22 06:07:53;;;;;;;7.00;6.30;;;;;;;40.27;37.38;100046.83;105804;1255;60446;-63
2023/08/22 06:10:23;;;;;;;7.30;6.70;;;;;;;40.23;37.82;100042.54;105990;1260;60527;-66
2023/08/22 06:12:50;;;;;;;6.80;6.20;;;;;;;40.23;37.73;100045.67;105908;1256;63994;-65
2023/08/22 06:15:18;;;;;;;6.20;5.70;;;;;;;40.26;37.45;100042.63;105743;1257;60448;-64
2023/08/22 06:17:45;;;;;;;6.40;5.40;;;;;;;40.23;36.93;100044.03;105627;1254;62786;-63
2023/08/22 06:20:12;;;;;;;7.80;7.20;;;;;;;40.11;37.45;100043.30;105890;1256;60931;-66
2023/08/22 06:22:39;;;;;;;7.10;6.40;;;;;;;40.08;38.48;100042.89;105839;1256;60495;-65
2023/08/22 06:25:07;;;;;;;7.30;6.50;;;;;;;40.06;38.49;100045.16;105637;1256;65145;-63
2023/08/22 06:27:34;;;;;;;5.60;5.10;;;;;;;40.08;38.30;100041.73;105779;1252;60437;-63
2023/08/22 06:30:02;;;;;;;9.90;9.10;;;;;;;40.22;37.77;100038.49;106013;1254;62806;-65
2023/08/22 06:32:32;;;;;;;8.90;8.20;;;;;;;40.29;38.07;100033.73;105928;1254;60318;-67
2023/08/22 06:34:59;;;;;;;7.80;7.10;;;;;;;40.33;38.21;100029.20;105714;1254;60357;-66
2023/08/22 06:37:27;;;;;;;7.60;6.90;;;;;;;40.40;37.73;100028.02;105719;1257;65594;-65
2023/08/22 06:39:54;;;;;;;7.70;7.00;;;;;;;40.47;37.71;100027.17;106065;1257;59545;-67
2023/08/22 06:42:21;;;;;;;5.40;4.90;;;;;;;40.47;37.42;100023.57;105759;1256;62721;-66
2023/08/22 06:44:50;;;;;;;5.20;4.80;;;;;;;40.38;36.82;100023.81;105877;1257;60372;-66
2023/08/22 06:47:16;;;;;;;5.80;5.30;;;;;;;40.18;37.06;100020.55;105860;1257;60425;-64
2023/08/22 06:49:43;;;;;;;5.20;4.70;;;;;;;40.00;37.31;100019.48;105785;1253;65179;-66
2023/08/22 06:52:11;;;;;;;6.70;5.40;;;;;;;39.86;37.45;100021.34;105940;1254;60443;-64
2023/08/22 06:54:38;;;;;;;4.90;4.40;;;;;;;39.78;37.58;100020.00;105797;1256;62833;-66
2023/08/22 06:57:06;;;;;;;11.20;9.00;;;;;;;39.89;37.70;100018.23;105784;1253;60454;-66
2023/08/22 06:59:32;;;;;;;6.00;5.40;;;;;;;40.04;36.66;100011.93;106008;1254;60423;-69
2023/08/22 07:02:00;;;;;;;4.20;3.80;;;;;;;40.18;36.91;100015.77;105887;1256;65297;-64
2023/08/22 07:04:29;;;;;;;5.30;4.80;;;;;;;40.24;35.93;100016.41;106122;1255;60492;-66
2023/08/22 07:06:56;;;;;;;;;;;;;;;39.96;36.06;100017.77;105658;1254;64570;-65
2023/08/22 07:09:24;;;;;;;4.40;3.60;;;;;;;39.56;36.67;100014.16;105844;1257;60386;-65
2023/08/22 07:11:51;;;;;;;5.70;3.80;;;;;;;39.37;37.19;100011.29;105866;1256;60684;-65
2023/08/22 07:14:18;;;;;;;3.60;3.30;;;;;;;39.53;37.78;100004.46;105788;1254;65261;-61
2023/08/22 07:16:45;;;;;;;4.50;3.20;;;;;;;39.91;37.41;100002.70;105848;1256;66938;-65
2023/08/22 07:19:12;;;;;;;3.50;3.20;;;;;;;40.11;34.35;100000.80;106046;1257;63671;-63
2023/08/22 07:21:47;;;;;;;3.60;3.30;;;;;;;40.09;33.65;100003.44;105638;1257;60428;-64
2023/08/22 07:24:15;;;;;;;4.00;3.60;;;;;;;39.98;33.31;99996.09;105863;1254;60439;-64
2023/08/22 07:26:42;;;;;;;4.20;3.50;;;;;;;39.81;33.64;99990.77;105786;1254;63829;-68
2023/08/22 07:29:09;;;;;;;3.10;2.80;;;;;;;39.76;34.46;99989.04;105661;1255;60418;-64
2023/08/22 07:31:36;;;;;;;5.60;3.70;;;;;;;40.02;34.27;99986.73;105705;1254;63813;-66
2023/08/22 07:34:03;;;;;;;3.80;3.20;;;;;;;40.42;33.88;99980.58;105892;1257;60319;-66
2023/08/22 07:36:30;;;;;;;3.10;2.80;;;;;;;40.70;33.36;99982.89;106039;1256;60322;-67
2023/08/22 07:38:58;;;;;;;5.70;3.30;;;;;;;40.69;32.36;99988.83;105682;1254;64133;-64
2023/08/22 07:41:25;;;;;;;4.40;3.60;;;;;;;40.42;32.23;99984.25;105747;1254;67699;-63
2023/08/22 07:43:52;;;;;;;3.90;3.10;;;;;;;40.20;32.69;99987.62;105707;1257;73434;-64
2023/08/22 07:46:19;;;;;;;3.40;3.10;;;;;;;40.29;33.09;99982.77;105823;1257;60537;-64
2023/08/22 07:48:46;;;;;;;4.00;3.60;;;;;;;40.56;32.89;99971.45;105897;1254;60527;-65
2023/08/22 07:51:13;;;;;;;14.80;4.60;;;;;;;40.64;33.02;99965.49;105278;1254;64013;-65
2023/08/22 07:53:40;;;;;;;4.10;3.50;;;;;;;40.77;32.88;99964.77;105772;1253;60504;-64
2023/08/22 07:56:07;;;;;;;6.50;3.60;;;;;;;40.87;30.76;99962.22;105741;1254;64149;-64
2023/08/22 07:58:34;;;;;;;4.50;3.10;;;;;;;40.66;30.23;99967.74;106130;1254;60437;-67
2023/08/22 08:01:04;;;;;;;3.40;3.00;;;;;;;40.46;30.68;99969.25;105668;1253;60358;-66
2023/08/22 08:03:31;;;;;;;4.10;3.00;;;;;;;40.54;30.63;99967.77;105894;1254;65899;-65
2023/08/22 08:05:58;;;;;;;4.30;3.00;;;;;;;40.73;30.82;99970.15;105721;1254;59262;-65
2023/08/22 08:08:25;;;;;;;3.80;3.40;;;;;;;40.79;30.88;99968.88;106213;1254;64110;-65
2023/08/22 08:10:52;;;;;;;4.00;3.10;;;;;;;40.87;30.63;99968.25;105943;1256;60329;-66
2023/08/22 08:13:19;;;;;;;4.40;3.10;;;;;;;40.98;30.32;99967.13;105786;1254;60416;-65
2023/08/22 08:15:46;;;;;;;3.30;3.00;;;;;;;40.95;30.26;99970.71;105543;1256;65052;-64
2023/08/22 08:18:16;;;;;;;3.70;2.90;;;;;;;40.89;30.24;99967.30;105706;1256;60530;-66
2023/08/22 08:20:43;;;;;;;5.60;3.30;;;;;;;40.81;30.14;99965.83;105662;1253;64316;-67
2023/08/22 08:23:10;;;;;;;3.40;2.90;;;;;;;40.95;30.19;99964.01;105456;1256;60314;-66
2023/08/22 08:25:37;;;;;;;3.40;3.00;;;;;;;41.21;30.26;99960.06;105748;1253;60470;-65
2023/08/22 08:28:05;;;;;;;3.60;2.70;;;;;;;41.38;30.40;99959.20;105735;1254;65057;-67
2023/08/22 08:30:32;;;;;;;4.30;3.10;;;;;;;41.48;29.53;99961.27;105829;1257;59220;-69
2023/08/22 08:33:02;;;;;;;3.60;2.70;;;;;;;41.48;29.19;99964.48;106011;1256;64402;-65
2023/08/22 08:35:29;;;;;;;3.60;3.10;;;;;;;41.37;29.22;99964.98;106009;1253;60290;-66
2023/08/22 08:37:57;;;;;;;4.10;2.80;;;;;;;41.13;29.55;99962.22;105779;1256;60421;-63
2023/08/22 08:40:24;;;;;;;3.30;2.90;;;;;;;40.92;29.56;99963.77;105909;1254;63970;-64
2023/08/22 08:42:51;;;;;;;5.30;3.20;;;;;;;40.79;29.69;99960.47;105305;1257;60501;-66
2023/08/22 08:45:18;;;;;;;4.00;3.10;;;;;;;40.82;29.85;99956.30;105823;1256;64068;-64
2023/08/22 08:47:45;;;;;;;3.30;3.00;;;;;;;40.80;29.59;99956.45;105718;1252;60338;-64
2023/08/22 08:50:13;;;;;;;4.50;3.40;;;;;;;40.67;30.29;99955.27;105594;1260;60429;-65
2023/08/22 08:52:44;;;;;;;3.70;3.10;;;;;;;40.52;30.27;99951.92;105829;1256;65049;-67
2023/08/22 08:55:12;;;;;;;4.50;3.10;;;;;;;40.27;29.92;99950.95;105646;1254;59174;-65
2023/08/22 08:57:39;;;;;;;3.60;2.90;;;;;;;39.91;29.64;99953.50;105819;1256;62750;-65
2023/08/22 09:00:07;;;;;;;4.40;3.10;;;;;;;39.49;30.45;99953.28;105695;1256;60534;-65
2023/08/22 09:02:35;;;;;;;4.70;3.10;;;;;;;39.25;31.59;99946.41;105988;1253;60546;-66
2023/08/22 09:05:04;;;;;;;4.60;3.40;;;;;;;39.13;32.38;99940.05;105717;1255;66859;-66
2023/08/22 09:07:31;;;;;;;4.60;3.90;;;;;;;38.96;33.01;99940.30;105784;1254;60571;-65
2023/08/22 09:10:01;;;;;;;6.00;3.80;;;;;;;38.76;34.07;99947.27;105698;1254;62716;-67
2023/08/22 09:12:35;;;;;;;4.40;4.00;;;;;;;38.68;35.33;99952.83;105738;1254;60397;-64
2023/08/22 09:15:03;;;;;;;3.80;3.40;;;;;;;38.60;35.08;99952.46;105635;1254;60428;-64
2023/08/22 09:17:30;;;;;;;4.40;3.50;;;;;;;38.42;34.41;99951.34;105769;1254;310537;-65
2023/08/22 09:19:57;;;;;;;6.60;4.10;;;;;;;38.12;35.41;99949.08;105796;1252;60543;-65
2023/08/22 09:22:29;;;;;;;4.60;4.20;;;;;;;37.86;36.37;99949.78;105761;1256;64187;-66
2023/08/22 09:24:56;;;;;;;5.00;4.30;;;;;;;37.66;37.21;99945.84;105691;1254;60425;-63
2023/08/22 09:27:26;;;;;;;4.90;4.40;;;;;;;37.54;37.98;99942.14;105901;1256;60368;-65
2023/08/22 09:30:00;;;;;;;;;;;;;;;37.60;38.23;99941.81;105702;1256;65457;-65
2023/08/22 09:32:27;;;;;;;5.00;4.50;;;;;;;37.77;37.90;99942.92;105990;1254;65723;-67
2023/08/22 09:34:59;;;;;;;4.20;3.80;;;;;;;37.95;37.21;99940.91;105816;1253;64111;-64
2023/08/22 09:37:31;;;;;;;4.10;3.70;;;;;;;38.26;36.01;99935.50;105844;1258;60527;-64
2023/08/22 09:39:58;;;;;;;4.40;3.80;;;;;;;38.66;36.30;99929.40;105802;1255;60332;-65
2023/08/22 09:42:29;;;;;;;6.30;4.10;;;;;;;39.03;35.21;99929.19;105497;1256;64052;-65
2023/08/22 09:44:57;;;;;;;6.00;3.90;;;;;;;39.14;34.34;99929.08;105835;1253;59683;-64
2023/08/22 09:47:30;;;;;;;4.40;4.00;;;;;;;39.02;33.89;99934.09;105748;1256;64111;-65
2023/08/22 09:50:06;;;;;;;4.60;4.00;;;;;;;38.83;34.15;99938.13;105916;1254;60543;-63
2023/08/22 09:52:35;;;;;;;5.20;4.20;;;;;;;38.70;34.31;99937.73;105843;1252;60341;-62
2023/08/22 09:55:03;;;;;;;5.60;3.90;;;;;;;38.45;34.21;99938.42;105884;1254;65416;-61
2023/08/22 09:57:32;;;;;;;4.60;3.90;;;;;;;38.15;34.63;99941.09;105808;1254;60432;-64
2023/08/22 09:59:59;;;;;;;4.90;4.40;;;;;;;38.00;35.77;99941.27;105882;1254;65988;-63
2023/08/22 10:02:27;;;;;;;4.60;4.20;;;;;;;37.98;35.63;99943.45;105763;1257;60421;-62
2023/08/22 10:04:54;;;;;;;4.80;4.30;;;;;;;38.12;36.01;99938.04;105776;1253;60435;-62
2023/08/22 10:07:23;;;;;;;4.20;3.60;;;;;;;38.44;35.77;99937.34;105756;1253;64070;-63
2023/08/22 10:09:50;;;;;;;4.40;3.60;;;;;;;38.77;34.88;99929.76;106161;1257;61114;-65
2023/08/22 10:12:17;;;;;;;4.30;3.90;;;;;;;38.95;34.00;99926.36;105929;1252;64162;-63
2023/08/22 10:14:49;;;;;;;4.10;3.10;;;;;;;38.95;32.99;99922.08;105810;1254;60604;-65
2023/08/22 10:17:16;;;;;;;4.30;3.40;;;;;;;38.91;32.76;99917.39;105562;1257;60409;-63
2023/08/22 10:19:44;;;;;;;4.90;3.90;;;;;;;38.80;33.14;99923.16;105878;1253;67071;-63
2023/08/22 10:22:12;;;;;;;3.80;3.40;;;;;;;38.78;32.71;99919.11;105527;1256;60419;-65
2023/08/22 10:24:46;;;;;;;5.20;4.00;;;;;;;38.90;32.64;99907.57;105882;1256;65980;-61
2023/08/22 10:27:15;;;;;;;4.20;3.40;;;;;;;38.95;31.94;99907.52;105668;1253;60462;-60
2023/08/22 10:29:46;;;;;;;3.60;3.20;;;;;;;38.76;31.61;99903.92;106039;1256;60358;-64
2023/08/22 10:32:13;;;;;;;3.80;3.40;;;;;;;38.43;31.87;99908.87;105876;1256;65257;-64
2023/08/22 10:34:40;;;;;;;3.90;3.50;;;;;;;38.16;32.12;99910.30;105740;1253;60352;-62
2023/08/22 10:37:19;;;;;;;5.90;3.50;;;;;;;37.95;32.63;99914.26;105718;1253;64513;-62
2023/08/22 10:39:48;;;;;;;18.80;5.30;;;;;;;37.62;32.98;99916.34;105520;1256;60999;-64
2023/08/22 10:42:17;;;;;;;5.60;3.80;;;;;;;37.20;33.72;99919.70;105824;1253;59166;-63
2023/08/22 10:44:51;;;;;;;4.50;3.60;;;;;;;36.74;34.21;99916.70;105791;1253;67165;-63
2023/08/22 10:47:21;;;;;;;4.30;3.90;;;;;;;36.23;34.71;99908.05;105742;1254;60437;-63
2023/08/22 10:49:51;;;;;;;;;;;;;;;35.68;35.86;99899.14;105814;1253;64773;-63
2023/08/22 10:52:40;;;;;;;4.60;4.20;;;;;;;35.12;37.57;99907.20;105739;1253;60632;-63
2023/08/22 10:55:11;;;;;;;6.80;4.50;;;;;;;34.55;40.28;99907.98;105590;1256;60284;-67
2023/08/22 10:57:40;;;;;;;4.70;4.30;;;;;;;33.99;42.01;99911.05;106000;1253;74292;-64
2023/08/22 11:00:20;;;;;;;4.30;3.90;;;;;;;33.46;43.35;99906.36;105705;1256;66657;-63
2023/08/22 11:02:51;;;;;;;6.90;4.60;;;;;;;32.95;46.40;99905.44;105916;1254;73049;-62
2023/08/22 11:05:18;;;;;;;5.50;4.90;;;;;;;32.53;49.01;99900.39;105691;1252;60636;-62
2023/08/22 11:07:48;;;;;;;5.70;5.00;;;;;;;32.19;53.00;99900.88;105609;1253;60304;-64
2023/08/22 11:10:18;;;;;;;6.60;5.20;;;;;;;31.91;56.82;99900.20;105736;1252;72407;-62
2023/08/22 11:12:45;;;;;;;7.30;5.20;;;;;;;31.66;61.79;99901.94;105702;1253;66232;-62
2023/08/22 11:15:13;;;;;;;6.70;4.90;;;;;;;31.45;63.96;99896.38;105571;1254;71545;-63
2023/08/22 11:17:41;;;;;;;5.30;4.60;;;;;;;31.29;65.90;99894.02;105719;1253;60409;-63
2023/08/22 11:20:11;;;;;;;5.80;5.20;;;;;;;31.20;69.82;99895.14;105627;1256;60916;-64